Terminal Aerodrome Forecast
Issued by NWS Jackson, MS

Home | Current Version | Previous Version | Text Only | Print | Product List | Glossary On
Versions: 1 2 3 4 5 6 7 8 9 10 11 12 13 14 15 16 17 18 19 20 21 22
000
FTUS44 KJAN 262326
TAFHBG
TAF
KHBG 262326Z 2700/2724 27010G15KT P6SM -SHRA VCTS BKN025CB OVC080
     FM270100 33011KT P6SM OVC015
     FM270800 34010KT P6SM OVC007
     FM271300 33006KT P6SM BKN015
     FM271500 34008KT P6SM SCT250
     FM272100 31013G20KT P6SM SCT050=

USA.gov is the U.S. government's official web portal to all federal, state and local government web resources and services.